Time;durP1;ratioP1;P1;durP2;ratioP2;P2;SDS_P1;SDS_P2;PMS_P1;PMS_P2;Temp;Humidity;BMP_temperature;BMP_pressure;BME280_temperature;BME280_humidity;BME280_pressure;Samples;Min_cycle;Max_cycle;Signal;HPM_P1;HPM_P2
2022/10/09 00:02:31;;;;;;;9.23;8.32;;;23.30;99.90;;;;;;6247622;27;83671;-67
2022/10/09 00:05:33;;;;;;;8.77;7.97;;;23.30;99.90;;;;;;6243392;27;83986;-67
2022/10/09 00:08:38;;;;;;;9.20;8.30;;;23.30;99.90;;;;;;6252016;27;84026;-67
2022/10/09 00:11:40;;;;;;;8.80;7.90;;;23.30;99.90;;;;;;6256232;27;84760;-67
2022/10/09 00:14:43;;;;;;;9.25;8.35;;;23.30;99.90;;;;;;6245534;27;84034;-67
2022/10/09 00:17:45;;;;;;;9.00;8.20;;;23.30;99.90;;;;;;6252428;27;84538;-67
2022/10/09 00:20:47;;;;;;;9.02;8.13;;;23.30;99.90;;;;;;6242778;27;84715;-67
2022/10/09 00:23:51;;;;;;;9.50;8.60;;;23.30;99.90;;;;;;6257083;27;84017;-67
2022/10/09 00:26:53;;;;;;;9.35;8.45;;;23.30;99.90;;;;;;6243493;27;84011;-67
2022/10/09 00:29:56;;;;;;;8.80;8.00;;;23.30;99.90;;;;;;6257859;27;84171;-67
2022/10/09 00:32:58;;;;;;;8.77;8.00;;;23.30;99.90;;;;;;6258788;27;83261;-67
2022/10/09 00:36:03;;;;;;;8.65;7.85;;;23.20;99.90;;;;;;6255783;27;83964;-66
2022/10/09 00:39:05;;;;;;;8.77;7.97;;;23.20;99.90;;;;;;6256979;27;84204;-67
2022/10/09 00:42:09;;;;;;;8.73;7.93;;;23.20;99.90;;;;;;6257578;27;85142;-67
2022/10/09 00:45:20;;;;;;;8.90;8.00;;;23.20;99.90;;;;;;6253475;27;85037;-66
2022/10/09 00:48:22;;;;;;;8.20;7.50;;;23.20;99.90;;;;;;6238824;27;84022;-67
2022/10/09 00:51:25;;;;;;;8.88;7.97;;;23.20;99.90;;;;;;6249087;27;83994;-67
2022/10/09 00:54:30;;;;;;;8.68;7.88;;;23.20;99.90;;;;;;6259477;27;83955;-67
2022/10/09 00:57:33;;;;;;;8.85;8.05;;;23.20;99.90;;;;;;6255218;27;84043;-67
2022/10/09 01:00:37;;;;;;;8.32;7.63;;;23.20;99.90;;;;;;6254225;27;83113;-67
2022/10/09 01:03:39;;;;;;;8.38;7.57;;;23.20;99.90;;;;;;6248113;27;85386;-66
2022/10/09 01:06:54;;;;;;;9.20;8.38;;;23.20;99.90;;;;;;6260171;27;82911;-67
2022/10/09 01:10:01;;;;;;;8.80;7.90;;;23.20;99.90;;;;;;6254403;27;84087;-67
2022/10/09 01:13:09;;;;;;;8.63;7.72;;;23.20;99.90;;;;;;6259656;27;85220;-67
2022/10/09 01:16:19;;;;;;;8.20;7.50;;;23.20;99.90;;;;;;6255810;27;84039;-66
2022/10/09 01:19:35;;;;;;;9.02;8.23;;;23.20;99.90;;;;;;6249527;27;84122;-67
2022/10/09 01:22:54;;;;;;;8.38;7.57;;;23.20;99.90;;;;;;6236688;27;83964;-67
2022/10/09 01:26:08;;;;;;;8.50;7.70;;;23.20;99.90;;;;;;6249250;27;84340;-67
2022/10/09 01:29:13;;;;;;;8.70;7.80;;;23.10;99.90;;;;;;6257585;27;84068;-66
2022/10/09 01:32:19;;;;;;;8.25;7.40;;;23.20;99.90;;;;;;6240523;27;83964;-67
2022/10/09 01:35:22;;;;;;;8.30;7.50;;;23.20;99.90;;;;;;6254431;27;83435;-66
2022/10/09 01:38:25;;;;;;;8.82;6.53;;;23.10;99.90;;;;;;6249678;27;84011;-67
2022/10/09 01:41:27;;;;;;;7.68;6.88;;;23.20;99.90;;;;;;6248251;27;82672;-67
2022/10/09 01:44:33;;;;;;;7.35;6.70;;;23.10;99.90;;;;;;6253362;27;85003;-67
2022/10/09 01:47:35;;;;;;;7.47;6.78;;;23.10;99.90;;;;;;6258730;27;84177;-66
2022/10/09 01:50:43;;;;;;;7.85;7.15;;;23.10;99.90;;;;;;6248350;27;82987;-66
2022/10/09 01:53:47;;;;;;;7.53;6.80;;;23.10;99.90;;;;;;6256704;27;83941;-67
2022/10/09 01:56:51;;;;;;;7.72;7.05;;;23.10;99.90;;;;;;6258486;27;84301;-67
2022/10/09 01:59:57;;;;;;;8.13;7.32;;;23.10;99.90;;;;;;6246922;28;84086;-67
2022/10/09 02:03:01;;;;;;;7.03;6.40;;;23.10;99.90;;;;;;6258733;27;82919;-66
2022/10/09 02:06:05;;;;;;;8.23;7.00;;;23.10;99.90;;;;;;6254721;27;83589;-66
2022/10/09 02:09:12;;;;;;;7.38;6.68;;;23.10;99.90;;;;;;6260312;27;84364;-67
2022/10/09 02:12:16;;;;;;;7.32;6.47;;;23.10;99.90;;;;;;6259510;27;83013;-66
2022/10/09 02:15:20;;;;;;;7.47;6.78;;;23.10;99.90;;;;;;6247383;27;84971;-67
2022/10/09 02:18:28;;;;;;;7.70;7.00;;;23.10;99.90;;;;;;6252009;27;84097;-67
2022/10/09 02:21:38;;;;;;;7.25;6.57;;;23.10;99.90;;;;;;6257394;27;84242;-67
2022/10/09 02:24:41;;;;;;;8.27;7.32;;;23.10;99.90;;;;;;6258600;27;84103;-66
2022/10/09 02:27:44;;;;;;;8.05;7.32;;;23.00;99.90;;;;;;6260486;27;82918;-66
2022/10/09 02:30:52;;;;;;;7.32;6.63;;;23.10;99.90;;;;;;6255065;27;83991;-66
2022/10/09 02:33:57;;;;;;;6.97;6.38;;;23.10;99.90;;;;;;6246185;27;84380;-67
2022/10/09 02:36:59;;;;;;;7.82;7.07;;;23.10;99.90;;;;;;6250554;27;83317;-67
2022/10/09 02:40:02;;;;;;;7.20;6.53;;;23.10;99.90;;;;;;6253157;27;84208;-66
2022/10/09 02:43:04;;;;;;;6.72;6.10;;;23.10;99.90;;;;;;6249461;27;84414;-66
2022/10/09 02:46:07;;;;;;;7.07;6.47;;;23.10;99.90;;;;;;6258090;27;84979;-66
2022/10/09 02:49:10;;;;;;;8.80;6.80;;;23.10;99.90;;;;;;6248976;27;84140;-67
2022/10/09 02:52:12;;;;;;;7.35;6.65;;;23.10;99.90;;;;;;6251593;28;84194;-67
2022/10/09 02:55:14;;;;;;;7.45;6.75;;;23.00;99.90;;;;;;6247991;27;84539;-66
2022/10/09 02:58:16;;;;;;;6.40;5.80;;;23.10;99.90;;;;;;6251396;27;84038;-67
2022/10/09 03:01:20;;;;;;;8.45;6.70;;;23.00;99.90;;;;;;6257878;27;84069;-67
2022/10/09 03:04:22;;;;;;;7.50;6.70;;;23.00;99.90;;;;;;6256568;27;83051;-66
2022/10/09 03:07:24;;;;;;;6.72;6.18;;;23.00;99.90;;;;;;6245884;27;83628;-66
2022/10/09 03:10:26;;;;;;;6.82;6.22;;;23.00;99.90;;;;;;6247454;27;84185;-67
2022/10/09 03:13:28;;;;;;;6.78;6.18;;;23.00;99.90;;;;;;6249571;27;84086;-67
2022/10/09 03:16:31;;;;;;;6.88;6.20;;;23.00;99.90;;;;;;6242386;27;84991;-66
2022/10/09 03:19:33;;;;;;;6.32;5.72;;;23.00;99.90;;;;;;6259343;27;84051;-66
2022/10/09 03:22:35;;;;;;;6.22;5.63;;;23.00;99.90;;;;;;6245168;27;84015;-66
2022/10/09 03:25:37;;;;;;;6.60;6.00;;;23.00;99.90;;;;;;6258642;27;84028;-66
2022/10/09 03:28:41;;;;;;;6.38;5.78;;;23.00;99.90;;;;;;6254594;27;84053;-66
2022/10/09 03:31:44;;;;;;;6.38;5.78;;;23.00;99.90;;;;;;6257076;27;84864;-67
2022/10/09 03:34:46;;;;;;;6.80;6.20;;;23.00;99.90;;;;;;6258035;27;83206;-66
2022/10/09 03:37:48;;;;;;;7.28;6.10;;;23.00;99.90;;;;;;6256795;27;83312;-66
2022/10/09 03:40:50;;;;;;;6.13;5.63;;;23.00;99.90;;;;;;6235454;27;84036;-66
2022/10/09 03:43:52;;;;;;;6.35;5.75;;;23.00;99.90;;;;;;6247367;27;84128;-66
2022/10/09 03:46:56;;;;;;;6.43;5.82;;;23.00;99.90;;;;;;6255049;27;84971;-66
2022/10/09 03:49:58;;;;;;;6.60;5.93;;;23.00;99.90;;;;;;6255982;27;84277;-67
2022/10/09 03:53:00;;;;;;;6.28;5.78;;;23.00;99.90;;;;;;6250751;27;83163;-67
2022/10/09 03:56:02;;;;;;;5.78;5.28;;;23.00;99.90;;;;;;6255983;27;87092;-67
2022/10/09 03:59:06;;;;;;;6.53;5.93;;;23.00;99.90;;;;;;6257147;27;84014;-67
2022/10/09 04:02:09;;;;;;;7.53;5.97;;;23.00;99.90;;;;;;6258473;27;82882;-67
2022/10/09 04:05:11;;;;;;;5.93;5.43;;;23.00;99.90;;;;;;6245167;27;84077;-67
2022/10/09 04:08:13;;;;;;;5.80;5.30;;;23.00;99.90;;;;;;6256918;27;82554;-67
2022/10/09 04:11:16;;;;;;;6.32;5.72;;;23.00;99.90;;;;;;6243381;27;84062;-67
2022/10/09 04:14:18;;;;;;;5.75;5.18;;;23.00;99.90;;;;;;6240864;27;84106;-67
2022/10/09 04:17:21;;;;;;;5.53;5.07;;;23.00;99.90;;;;;;6242833;27;85326;-67
2022/10/09 04:20:23;;;;;;;5.15;4.75;;;23.00;99.90;;;;;;6243077;27;82994;-67
2022/10/09 04:23:26;;;;;;;5.70;5.20;;;23.00;99.90;;;;;;6241297;27;84015;-67
2022/10/09 04:26:29;;;;;;;5.50;5.00;;;23.00;99.90;;;;;;6253673;27;84027;-67
2022/10/09 04:29:31;;;;;;;5.30;4.80;;;23.00;99.90;;;;;;6261342;27;84312;-66
2022/10/09 04:32:34;;;;;;;5.50;5.00;;;23.00;99.90;;;;;;6244323;27;84064;-67
2022/10/09 04:35:36;;;;;;;5.50;5.00;;;23.00;99.90;;;;;;6261401;27;83063;-67
2022/10/09 04:38:38;;;;;;;6.03;5.40;;;23.00;99.90;;;;;;6262658;27;83455;-67
2022/10/09 04:41:40;;;;;;;6.18;5.53;;;23.00;99.90;;;;;;6243921;27;82895;-67
2022/10/09 04:44:42;;;;;;;5.15;4.65;;;23.00;99.90;;;;;;6249233;28;84480;-67
2022/10/09 04:47:45;;;;;;;5.22;4.75;;;23.10;99.90;;;;;;6259588;27;85182;-67
2022/10/09 04:50:47;;;;;;;5.50;5.00;;;23.10;99.90;;;;;;6262274;27;82984;-67
2022/10/09 04:53:49;;;;;;;5.40;4.90;;;23.00;99.90;;;;;;6256398;27;83976;-67
2022/10/09 04:56:51;;;;;;;4.72;4.32;;;23.00;99.90;;;;;;6242604;27;83992;-67
2022/10/09 04:59:53;;;;;;;5.10;4.70;;;23.00;99.90;;;;;;6254576;27;84021;-67
2022/10/09 05:02:57;;;;;;;5.63;4.90;;;23.00;99.90;;;;;;6261187;27;84074;-67
2022/10/09 05:06:01;;;;;;;5.95;5.15;;;23.10;99.90;;;;;;6247320;27;82942;-67
2022/10/09 05:09:03;;;;;;;5.15;4.65;;;23.10;99.90;;;;;;6238449;27;83375;-67
2022/10/09 05:12:05;;;;;;;5.28;4.78;;;23.00;99.90;;;;;;6237837;27;84408;-67
2022/10/09 05:15:08;;;;;;;4.93;4.45;;;23.10;99.90;;;;;;6258577;27;84087;-67
2022/10/09 05:18:11;;;;;;;4.78;4.38;;;23.10;99.90;;;;;;6259883;27;85289;-67
2022/10/09 05:21:14;;;;;;;4.85;4.45;;;23.10;99.90;;;;;;6247423;27;83317;-67
2022/10/09 05:24:16;;;;;;;4.93;4.53;;;23.10;99.90;;;;;;6261438;27;84305;-67
2022/10/09 05:27:18;;;;;;;4.88;4.47;;;23.10;99.90;;;;;;6248484;27;84309;-67
2022/10/09 05:30:20;;;;;;;4.65;4.20;;;23.10;99.90;;;;;;6247410;27;84435;-67
2022/10/09 05:33:24;;;;;;;6.40;4.90;;;23.10;99.90;;;;;;6247353;27;84015;-67
2022/10/09 05:36:26;;;;;;;4.90;4.40;;;23.10;99.90;;;;;;6248962;27;83005;-67
2022/10/09 05:39:28;;;;;;;4.72;4.32;;;23.10;99.90;;;;;;6249893;27;83383;-67
2022/10/09 05:42:30;;;;;;;4.70;4.30;;;23.10;99.90;;;;;;6251583;27;84484;-67
2022/10/09 05:45:32;;;;;;;4.57;4.15;;;23.10;99.90;;;;;;6239039;27;84134;-67
2022/10/09 05:48:36;;;;;;;4.60;4.20;;;23.10;99.90;;;;;;6248952;27;85325;-67
2022/10/09 05:51:41;;;;;;;5.25;4.28;;;23.10;99.90;;;;;;6250136;27;84114;-67
2022/10/09 05:54:43;;;;;;;5.07;4.50;;;23.10;99.90;;;;;;6247645;27;84104;-67
2022/10/09 05:57:45;;;;;;;4.63;4.22;;;23.10;99.90;;;;;;6253820;27;84499;-67
2022/10/09 06:00:47;;;;;;;4.22;3.83;;;23.10;99.90;;;;;;6259716;27;84042;-67
2022/10/09 06:03:52;;;;;;;3.95;3.65;;;23.10;99.90;;;;;;6236750;27;84359;-66
2022/10/09 06:06:54;;;;;;;4.40;4.00;;;23.10;99.90;;;;;;6244387;27;84373;-67
2022/10/09 06:09:56;;;;;;;4.90;4.00;;;23.10;99.90;;;;;;6253153;27;83381;-67
2022/10/09 06:12:58;;;;;;;3.88;3.55;;;23.10;99.90;;;;;;6241607;27;83935;-67
2022/10/09 06:16:00;;;;;;;4.40;4.00;;;23.10;99.90;;;;;;6246703;27;84350;-66
2022/10/09 06:19:04;;;;;;;4.55;4.15;;;23.10;99.90;;;;;;6256797;27;84983;-67
2022/10/09 06:22:06;;;;;;;4.75;4.00;;;23.10;99.90;;;;;;6249132;28;83979;-67
2022/10/09 06:25:09;;;;;;;4.10;3.80;;;23.10;99.90;;;;;;6236009;27;83424;-67
2022/10/09 06:28:11;;;;;;;4.53;4.13;;;23.10;99.90;;;;;;6247781;27;84018;-67
2022/10/09 06:31:15;;;;;;;4.80;3.97;;;23.10;99.90;;;;;;6235667;27;84111;-67
2022/10/09 06:34:19;;;;;;;4.43;4.03;;;23.20;99.90;;;;;;6255583;27;84486;-67
2022/10/09 06:37:21;;;;;;;3.92;3.63;;;23.20;99.90;;;;;;6255650;27;84215;-67
2022/10/09 06:40:23;;;;;;;3.80;3.50;;;23.20;99.90;;;;;;6246282;27;83530;-67
2022/10/09 06:43:25;;;;;;;4.22;3.83;;;23.20;99.90;;;;;;6248015;27;84264;-67
2022/10/09 06:46:29;;;;;;;4.22;3.90;;;23.20;99.90;;;;;;6249504;27;84211;-67
2022/10/09 06:49:32;;;;;;;4.00;3.60;;;23.20;99.90;;;;;;6254480;27;84991;-67
2022/10/09 06:52:34;;;;;;;3.88;3.58;;;23.20;99.90;;;;;;6254129;27;84122;-67
2022/10/09 06:55:36;;;;;;;4.22;3.83;;;23.10;99.90;;;;;;6241108;27;84063;-66
2022/10/09 06:58:39;;;;;;;4.32;3.90;;;23.20;99.90;;;;;;6250400;27;84101;-67
2022/10/09 07:01:42;;;;;;;4.07;3.67;;;23.20;99.90;;;;;;6238197;27;84013;-66
2022/10/09 07:04:47;;;;;;;4.05;3.70;;;23.30;99.90;;;;;;6239850;27;84729;-66
2022/10/09 07:07:49;;;;;;;4.18;3.78;;;23.20;99.90;;;;;;6247444;27;83050;-67
2022/10/09 07:10:51;;;;;;;4.18;3.78;;;23.20;99.90;;;;;;6240172;27;83775;-67
2022/10/09 07:13:55;;;;;;;3.78;3.47;;;23.20;99.90;;;;;;6244475;27;84048;-67
2022/10/09 07:16:57;;;;;;;3.60;3.30;;;23.30;99.90;;;;;;6240309;27;84120;-66
2022/10/09 07:20:00;;;;;;;3.72;3.40;;;23.20;99.90;;;;;;6250957;27;84788;-67
2022/10/09 07:23:02;;;;;;;3.53;3.22;;;23.20;99.90;;;;;;6255594;27;84077;-67
2022/10/09 07:26:11;;;;;;;3.90;3.47;;;23.20;99.90;;;;;;6258201;27;84143;-67
2022/10/09 07:29:15;;;;;;;4.03;3.63;;;23.30;99.90;;;;;;6253516;27;84039;-67
2022/10/09 07:32:17;;;;;;;4.07;3.78;;;23.30;99.90;;;;;;6250326;27;84352;-67
2022/10/09 07:35:20;;;;;;;3.55;3.25;;;23.30;99.90;;;;;;6251351;27;84058;-68
2022/10/09 07:38:24;;;;;;;5.68;3.40;;;23.30;99.90;;;;;;6255818;27;83976;-67
2022/10/09 07:41:27;;;;;;;3.90;3.50;;;23.30;99.90;;;;;;6245745;27;83430;-67
2022/10/09 07:44:29;;;;;;;3.63;3.30;;;23.30;99.90;;;;;;6252401;27;82931;-66
2022/10/09 07:47:31;;;;;;;4.97;3.58;;;23.30;99.90;;;;;;6245653;27;85209;-67
2022/10/09 07:50:35;;;;;;;3.22;2.92;;;23.30;99.90;;;;;;6250453;27;84979;-66
2022/10/09 07:53:37;;;;;;;4.03;3.50;;;23.30;99.90;;;;;;6245231;27;84437;-67
2022/10/09 07:56:39;;;;;;;3.75;3.33;;;23.40;99.90;;;;;;6250582;27;84244;-66
2022/10/09 07:59:41;;;;;;;3.78;3.15;;;23.30;99.90;;;;;;6257402;27;84143;-66
2022/10/09 08:02:44;;;;;;;4.40;3.83;;;23.30;99.90;;;;;;6252485;27;82785;-66
2022/10/09 08:05:55;;;;;;;3.88;3.53;;;23.30;99.90;;;;;;6259485;27;83951;-67
2022/10/09 08:08:59;;;;;;;3.53;3.22;;;23.40;99.90;;;;;;6242255;27;84129;-66
2022/10/09 08:12:01;;;;;;;4.35;3.50;;;23.40;99.90;;;;;;6256120;27;82131;-66
2022/10/09 08:15:03;;;;;;;3.83;3.30;;;23.40;99.90;;;;;;6251373;27;84370;-65
2022/10/09 08:18:07;;;;;;;3.92;3.25;;;23.40;99.90;;;;;;6254302;27;83974;-66
2022/10/09 08:21:14;;;;;;;3.50;3.20;;;23.40;99.90;;;;;;6250960;27;83903;-66
2022/10/09 08:24:16;;;;;;;4.82;3.78;;;23.50;99.90;;;;;;6255101;27;84078;-65
2022/10/09 08:27:18;;;;;;;6.72;3.97;;;23.50;99.90;;;;;;6255810;27;83213;-66
2022/10/09 08:30:20;;;;;;;6.25;3.97;;;23.50;99.90;;;;;;6256408;27;84033;-65
2022/10/09 08:33:23;;;;;;;9.20;4.72;;;23.50;99.90;;;;;;6252482;27;84100;-65
2022/10/09 08:36:28;;;;;;;10.82;5.30;;;23.50;99.90;;;;;;6256464;27;83799;-65
2022/10/09 08:39:31;;;;;;;12.70;5.07;;;23.50;99.90;;;;;;6255414;27;82784;-65
2022/10/09 08:42:39;;;;;;;12.90;5.15;;;23.60;99.90;;;;;;6255152;27;83241;-65
2022/10/09 08:45:44;;;;;;;16.77;5.70;;;23.60;99.90;;;;;;6254788;27;84180;-66
2022/10/09 08:48:47;;;;;;;12.07;5.75;;;23.60;99.90;;;;;;6248900;27;84117;-66
2022/10/09 08:51:51;;;;;;;14.35;6.30;;;23.60;99.90;;;;;;6245263;27;84955;-65
2022/10/09 08:54:55;;;;;;;11.48;5.60;;;23.60;99.90;;;;;;6257255;27;84256;-65
2022/10/09 08:58:03;;;;;;;10.98;5.28;;;23.60;99.90;;;;;;6252952;28;83284;-65
2022/10/09 09:01:12;;;;;;;10.20;4.97;;;23.60;99.90;;;;;;6253763;27;83774;-67
2022/10/09 09:04:27;;;;;;;10.68;5.10;;;23.70;99.90;;;;;;6259430;27;84214;-67
2022/10/09 09:07:38;;;;;;;11.02;4.78;;;23.70;99.90;;;;;;6261382;27;84111;-67
2022/10/09 09:10:43;;;;;;;9.55;4.55;;;23.70;99.90;;;;;;6258324;27;84032;-67
2022/10/09 09:13:56;;;;;;;13.10;5.30;;;23.70;99.90;;;;;;6262374;27;82314;-67
2022/10/09 09:17:09;;;;;;;13.75;5.00;;;23.70;99.90;;;;;;6249146;27;84090;-66
2022/10/09 09:20:20;;;;;;;6.40;3.65;;;23.60;98.00;;;;;;6252411;27;83959;-66
2022/10/09 09:23:27;;;;;;;7.65;3.42;;;23.30;91.40;;;;;;6250075;27;84900;-66
2022/10/09 09:26:29;;;;;;;5.97;3.50;;;22.80;89.10;;;;;;6257871;27;82987;-66
2022/10/09 09:29:39;;;;;;;7.53;3.83;;;22.30;88.90;;;;;;6259028;27;84043;-66
2022/10/09 09:32:46;;;;;;;6.40;3.30;;;21.90;90.40;;;;;;6259523;27;83955;-66
2022/10/09 09:35:56;;;;;;;7.60;3.22;;;21.60;91.10;;;;;;6259284;27;84143;-67
2022/10/09 09:39:00;;;;;;;8.43;3.40;;;21.40;90.80;;;;;;6254016;27;84026;-67
2022/10/09 09:42:11;;;;;;;9.63;3.10;;;21.30;93.50;;;;;;6249090;27;84045;-67
2022/10/09 09:45:19;;;;;;;6.25;2.88;;;21.30;95.50;;;;;;6260593;27;83554;-67
2022/10/09 09:48:32;;;;;;;5.50;2.58;;;21.50;96.50;;;;;;6244923;27;83961;-67
2022/10/09 09:51:36;;;;;;;6.65;3.00;;;21.70;96.60;;;;;;6253789;27;83135;-67
2022/10/09 09:54:41;;;;;;;4.15;2.30;;;21.90;97.30;;;;;;6247895;27;85279;-67
2022/10/09 09:57:45;;;;;;;5.65;2.40;;;22.00;97.50;;;;;;6247265;27;82925;-67
2022/10/09 10:00:54;;;;;;;9.38;3.95;;;22.10;98.50;;;;;;6253387;27;84012;-67
2022/10/09 10:03:58;;;;;;;4.93;2.70;;;22.30;99.90;;;;;;6261369;27;84609;-66
2022/10/09 10:07:01;;;;;;;4.32;2.58;;;22.40;95.50;;;;;;6249891;27;84373;-67
2022/10/09 10:10:10;;;;;;;5.25;2.70;;;22.40;96.40;;;;;;6253247;27;83717;-67
2022/10/09 10:13:15;;;;;;;5.35;2.97;;;22.50;95.90;;;;;;6248398;27;84043;-67
2022/10/09 10:16:23;;;;;;;4.07;2.70;;;22.60;95.00;;;;;;6247904;27;83245;-67
2022/10/09 10:19:27;;;;;;;3.78;2.42;;;22.60;94.20;;;;;;6251182;27;84060;-66
2022/10/09 10:22:31;;;;;;;3.58;2.33;;;22.50;90.60;;;;;;6259731;27;84011;-66
2022/10/09 10:25:35;;;;;;;8.07;2.80;;;22.60;92.60;;;;;;6249888;27;83068;-67
2022/10/09 10:28:47;;;;;;;3.50;2.13;;;22.60;93.00;;;;;;6243323;27;84228;-66
2022/10/09 10:31:53;;;;;;;2.88;1.90;;;22.60;93.10;;;;;;6258350;27;84497;-66
2022/10/09 10:35:02;;;;;;;2.78;1.80;;;22.70;92.90;;;;;;6256180;27;84266;-67
2022/10/09 10:38:07;;;;;;;4.50;1.90;;;22.70;92.40;;;;;;6252290;27;83900;-66
2022/10/09 10:41:16;;;;;;;3.83;1.70;;;22.70;92.20;;;;;;6243418;27;83440;-67
2022/10/09 10:44:24;;;;;;;3.92;2.10;;;22.70;91.60;;;;;;6254922;27;83983;-67
2022/10/09 10:47:30;;;;;;;3.33;1.83;;;22.70;91.30;;;;;;6256340;27;83280;-67
2022/10/09 10:50:38;;;;;;;3.30;1.73;;;22.70;91.00;;;;;;6258897;27;84048;-66
2022/10/09 10:53:52;;;;;;;2.80;1.88;;;22.80;90.70;;;;;;6252670;27;84089;-67
2022/10/09 10:57:03;;;;;;;7.38;2.13;;;22.80;90.40;;;;;;6250659;27;85348;-66
2022/10/09 11:00:08;;;;;;;6.97;2.10;;;22.80;90.00;;;;;;6257588;27;84451;-67
2022/10/09 11:03:27;;;;;;;4.10;1.95;;;22.80;90.50;;;;;;6254808;27;84119;-66
2022/10/09 11:06:40;;;;;;;3.97;1.98;;;22.80;90.60;;;;;;6259174;27;82897;-67
2022/10/09 11:09:52;;;;;;;3.63;1.95;;;22.80;91.20;;;;;;6246909;28;84023;-66
2022/10/09 11:13:02;;;;;;;2.58;1.95;;;22.80;91.40;;;;;;6247099;28;84296;-67
2022/10/09 11:16:18;;;;;;;5.05;2.10;;;22.80;91.70;;;;;;6246253;27;84058;-66
2022/10/09 11:19:48;;;;;;;3.65;1.80;;;22.90;92.00;;;;;;6248652;27;83479;-67
2022/10/09 11:23:05;;;;;;;3.00;1.90;;;22.90;92.40;;;;;;6235347;27;84329;-67
2022/10/09 11:26:18;;;;;;;4.82;1.80;;;22.90;92.80;;;;;;6247142;27;84376;-67
2022/10/09 11:29:26;;;;;;;4.10;1.90;;;22.90;93.10;;;;;;6258040;27;84960;-67
2022/10/09 11:32:33;;;;;;;3.13;1.70;;;22.90;93.50;;;;;;6234226;27;84028;-67
2022/10/09 11:35:42;;;;;;;2.20;1.50;;;23.00;93.80;;;;;;6247097;27;84332;-66
2022/10/09 11:38:48;;;;;;;2.75;1.63;;;23.00;94.10;;;;;;6247805;27;84036;-67
2022/10/09 11:41:52;;;;;;;2.50;1.58;;;22.90;94.30;;;;;;6250398;27;84592;-66
2022/10/09 11:45:07;;;;;;;2.65;1.60;;;23.00;94.50;;;;;;6257182;27;82899;-66
2022/10/09 11:48:17;;;;;;;2.53;1.63;;;23.00;94.70;;;;;;6252855;27;84129;-67
2022/10/09 11:51:28;;;;;;;2.85;1.73;;;23.00;94.90;;;;;;6258079;27;82126;-68
2022/10/09 11:54:30;;;;;;;3.90;1.63;;;23.00;95.80;;;;;;6234599;27;84001;-67
2022/10/09 11:57:34;;;;;;;4.22;1.98;;;23.00;96.20;;;;;;6255135;27;84308;-67
2022/10/09 12:00:37;;;;;;;4.10;1.80;;;23.00;96.60;;;;;;6252265;27;85109;-67
2022/10/09 12:03:40;;;;;;;4.47;1.83;;;23.00;97.30;;;;;;6257746;27;83182;-67
2022/10/09 12:06:46;;;;;;;5.68;1.90;;;23.00;97.90;;;;;;6256024;27;84127;-68
2022/10/09 12:09:49;;;;;;;5.25;1.92;;;23.00;98.00;;;;;;6253950;27;83990;-66
2022/10/09 12:12:58;;;;;;;7.72;1.80;;;23.10;98.80;;;;;;6255637;27;84024;-67
2022/10/09 12:16:01;;;;;;;7.70;2.45;;;23.10;98.80;;;;;;6257255;27;84091;-67
2022/10/09 12:19:11;;;;;;;6.88;3.75;;;23.10;99.90;;;;;;6242294;27;84065;-66
2022/10/09 12:22:17;;;;;;;8.93;3.30;;;23.20;99.80;;;;;;6240515;27;83256;-65
2022/10/09 12:25:26;;;;;;;24.95;11.77;;;23.30;99.90;;;;;;6241261;27;84026;-66
2022/10/09 12:28:36;;;;;;;90.97;47.28;;;23.30;99.90;;;;;;6236017;27;84284;-65
2022/10/09 12:31:42;;;;;;;34.67;31.38;;;23.50;99.90;;;;;;6244868;27;85392;-65
2022/10/09 12:34:47;;;;;;;11.63;10.50;;;23.50;90.50;;;;;;6236222;27;84792;-65
2022/10/09 12:37:49;;;;;;;7.20;3.80;;;23.40;84.80;;;;;;6250400;27;82855;-65
2022/10/09 12:40:53;;;;;;;4.47;2.33;;;23.30;80.00;;;;;;6252435;27;84081;-66
2022/10/09 12:43:57;;;;;;;3.10;2.45;;;23.20;79.80;;;;;;6252798;27;84395;-65
2022/10/09 12:47:03;;;;;;;4.13;2.58;;;23.20;80.80;;;;;;6258272;27;83832;-65
2022/10/09 12:50:19;;;;;;;5.75;2.92;;;23.10;83.50;;;;;;6259468;27;84114;-65
2022/10/09 12:53:23;;;;;;;4.53;2.60;;;23.20;85.90;;;;;;6251586;27;83546;-65
2022/10/09 12:56:29;;;;;;;6.60;3.08;;;23.20;87.60;;;;;;6238376;27;84498;-65
2022/10/09 12:59:32;;;;;;;3.55;2.50;;;23.30;88.70;;;;;;6260888;27;84182;-65
2022/10/09 13:02:36;;;;;;;3.88;2.50;;;23.40;89.50;;;;;;6261079;27;85014;-65
2022/10/09 13:05:39;;;;;;;5.43;2.60;;;23.40;91.20;;;;;;6262037;28;84305;-65
2022/10/09 13:08:41;;;;;;;3.85;2.00;;;23.60;91.40;;;;;;6261988;27;83143;-65
2022/10/09 13:11:45;;;;;;;5.05;2.60;;;23.70;91.30;;;;;;6260250;27;84175;-65
2022/10/09 13:14:54;;;;;;;6.20;2.22;;;23.70;91.30;;;;;;6253106;27;83969;-65
2022/10/09 13:17:58;;;;;;;3.88;2.20;;;23.80;92.10;;;;;;6255629;27;84831;-65
2022/10/09 13:21:02;;;;;;;3.78;2.22;;;23.80;91.90;;;;;;6257532;27;83213;-65
2022/10/09 13:24:08;;;;;;;6.88;3.53;;;23.80;92.00;;;;;;6239523;27;83629;-67
2022/10/09 13:27:13;;;;;;;5.63;2.30;;;23.90;98.40;;;;;;6259771;27;84023;-66
2022/10/09 13:30:15;;;;;;;5.00;2.08;;;24.10;98.80;;;;;;6254196;27;82755;-65
2022/10/09 13:33:18;;;;;;;4.97;2.25;;;24.40;96.00;;;;;;6252582;27;84955;-65
2022/10/09 13:36:21;;;;;;;4.32;2.10;;;24.60;95.00;;;;;;6256631;27;84123;-64
2022/10/09 13:39:23;;;;;;;2.80;1.80;;;24.70;93.60;;;;;;6255497;27;84100;-65
2022/10/09 13:42:28;;;;;;;4.38;2.15;;;24.60;93.30;;;;;;6248223;27;83064;-65
2022/10/09 13:45:30;;;;;;;4.65;2.08;;;24.60;93.40;;;;;;6247059;27;84432;-65
2022/10/09 13:48:33;;;;;;;4.43;2.03;;;24.50;93.60;;;;;;6250058;27;82879;-65
2022/10/09 13:51:35;;;;;;;3.45;2.03;;;24.50;93.80;;;;;;6251402;27;84154;-65
2022/10/09 13:54:37;;;;;;;3.95;2.30;;;24.40;93.90;;;;;;6256685;27;83552;-65
2022/10/09 13:57:39;;;;;;;3.70;1.77;;;24.40;94.20;;;;;;6249960;27;85279;-65
2022/10/09 14:00:44;;;;;;;3.45;1.90;;;24.40;94.20;;;;;;6254130;27;84057;-65
2022/10/09 14:03:48;;;;;;;2.60;1.85;;;24.40;94.20;;;;;;6252815;27;84971;-65
2022/10/09 14:06:50;;;;;;;4.05;2.10;;;24.40;94.20;;;;;;6254949;27;83988;-65
2022/10/09 14:09:52;;;;;;;3.03;1.67;;;24.30;94.20;;;;;;6249750;27;83370;-65
2022/10/09 14:12:54;;;;;;;3.38;1.80;;;24.30;94.20;;;;;;6236610;27;84030;-65
2022/10/09 14:15:56;;;;;;;3.67;1.98;;;24.30;94.40;;;;;;6255051;27;84084;-65
2022/10/09 14:19:01;;;;;;;3.08;1.95;;;24.30;94.60;;;;;;6260861;27;84050;-65
2022/10/09 14:22:03;;;;;;;3.50;1.67;;;24.30;95.00;;;;;;6242264;27;84175;-65
2022/10/09 14:25:06;;;;;;;5.65;1.80;;;24.20;94.80;;;;;;6248976;27;83362;-64
2022/10/09 14:28:08;;;;;;;2.78;1.58;;;24.20;94.60;;;;;;6248185;27;84213;-64
2022/10/09 14:31:10;;;;;;;3.08;1.63;;;24.10;82.30;;;;;;6250392;27;83205;-64
2022/10/09 14:34:14;;;;;;;4.03;1.90;;;23.80;76.90;;;;;;6249704;27;84970;-65
2022/10/09 14:37:16;;;;;;;3.35;1.75;;;23.60;76.30;;;;;;6259558;27;84188;-65
2022/10/09 14:40:18;;;;;;;3.50;1.60;;;23.30;76.50;;;;;;6247977;27;84017;-65
2022/10/09 14:43:22;;;;;;;3.20;1.52;;;23.20;76.90;;;;;;6250211;27;83262;-65
2022/10/09 14:46:24;;;;;;;3.60;1.70;;;22.90;74.20;;;;;;6245672;27;84002;-64
2022/10/09 14:49:27;;;;;;;2.72;1.50;;;22.70;75.10;;;;;;6239261;27;82956;-64
2022/10/09 14:52:29;;;;;;;2.10;1.50;;;22.60;74.70;;;;;;6257928;27;84031;-64
2022/10/09 14:55:34;;;;;;;3.22;1.65;;;22.50;75.00;;;;;;6257393;27;83349;-65
2022/10/09 14:58:37;;;;;;;4.28;1.70;;;22.50;76.70;;;;;;6259873;27;84076;-65
2022/10/09 15:01:39;;;;;;;3.70;1.63;;;22.50;78.30;;;;;;6256329;27;82912;-65
2022/10/09 15:04:42;;;;;;;2.35;1.40;;;22.50;79.40;;;;;;6244105;27;85015;-65
2022/10/09 15:07:44;;;;;;;2.97;1.50;;;22.60;80.10;;;;;;6246841;27;83962;-66
2022/10/09 15:10:49;;;;;;;2.72;1.40;;;22.70;80.80;;;;;;6236758;27;83973;-66
2022/10/09 15:13:51;;;;;;;3.15;1.50;;;22.80;81.60;;;;;;6256656;27;84045;-66
2022/10/09 15:16:53;;;;;;;3.25;1.38;;;22.80;82.20;;;;;;6252642;27;84475;-65
2022/10/09 15:19:57;;;;;;;2.20;1.42;;;22.90;83.00;;;;;;6244385;27;84113;-66
2022/10/09 15:22:59;;;;;;;2.75;1.60;;;22.90;83.80;;;;;;6240863;27;83381;-65
2022/10/09 15:26:01;;;;;;;3.17;1.40;;;23.00;84.20;;;;;;6247286;27;83290;-65
2022/10/09 15:29:04;;;;;;;2.50;1.40;;;23.00;84.90;;;;;;6244971;27;84059;-65
2022/10/09 15:32:06;;;;;;;2.03;1.40;;;23.10;85.60;;;;;;6245471;27;85213;-65
2022/10/09 15:35:10;;;;;;;2.90;1.60;;;23.00;86.20;;;;;;6237333;27;83779;-65
2022/10/09 15:38:14;;;;;;;3.03;1.60;;;23.10;87.00;;;;;;6249521;27;84030;-65
2022/10/09 15:41:22;;;;;;;3.38;1.42;;;23.10;87.90;;;;;;6244645;27;84062;-65
2022/10/09 15:44:24;;;;;;;2.67;1.67;;;23.10;88.30;;;;;;6253836;27;84169;-65
2022/10/09 15:47:26;;;;;;;1.83;1.20;;;23.10;88.80;;;;;;6245641;27;84503;-65
2022/10/09 15:50:29;;;;;;;2.55;1.40;;;23.10;89.20;;;;;;6251448;27;84094;-65
2022/10/09 15:53:31;;;;;;;2.55;1.45;;;23.20;89.70;;;;;;6253666;27;84032;-65
2022/10/09 15:56:33;;;;;;;1.70;1.40;;;23.10;90.00;;;;;;6255058;27;83299;-65
2022/10/09 15:59:39;;;;;;;2.28;1.33;;;23.20;90.20;;;;;;6243328;27;84013;-65